Time;durP1;ratioP1;P1;durP2;ratioP2;P2;SDS_P1;SDS_P2;PMS_P1;PMS_P2;Temp;Humidity;BMP_temperature;BMP_pressure;BME280_temperature;BME280_humidity;BME280_pressure;Samples;Min_cycle;Max_cycle;Signal;HPM_P1;HPM_P2
2023/01/25 00:00:27;;;;;;;28.10;20.03;;;1.40;99.90;;;;;;4892949;29;20040;-70
2023/01/25 00:02:54;;;;;;;24.70;18.90;;;1.40;99.90;;;;;;4888522;29;20507;-70
2023/01/25 00:05:20;;;;;;;24.93;17.87;;;1.40;99.90;;;;;;4904002;29;20485;-70
2023/01/25 00:07:46;;;;;;;25.40;18.17;;;1.40;99.90;;;;;;4881159;29;20050;-70
2023/01/25 00:10:12;;;;;;;22.83;18.13;;;1.40;99.90;;;;;;4896952;29;20055;-70
2023/01/25 00:12:39;;;;;;;25.43;19.50;;;1.40;99.90;;;;;;4912037;29;20055;-70
2023/01/25 00:15:06;;;;;;;23.17;17.47;;;1.40;99.90;;;;;;4894962;29;20032;-71
2023/01/25 00:17:32;;;;;;;21.80;17.33;;;1.40;99.90;;;;;;4898249;29;20047;-70
2023/01/25 00:19:58;;;;;;;24.43;18.30;;;1.40;99.90;;;;;;4899329;29;20040;-70
2023/01/25 00:22:24;;;;;;;22.47;17.73;;;1.50;99.90;;;;;;4891742;29;20036;-69
2023/01/25 00:24:51;;;;;;;23.13;17.57;;;1.50;99.90;;;;;;4881038;29;20587;-71
2023/01/25 00:27:17;;;;;;;25.00;18.83;;;1.50;99.90;;;;;;4878280;29;20630;-70
2023/01/25 00:29:43;;;;;;;22.70;17.23;;;1.50;99.90;;;;;;4899112;29;20040;-70
2023/01/25 00:32:10;;;;;;;20.27;15.10;;;1.50;99.90;;;;;;4908173;29;20032;-71
2023/01/25 00:34:43;;;;;;;28.43;19.47;;;1.50;99.90;;;;;;4909669;29;20567;-69
2023/01/25 00:37:34;;;;;;;27.00;21.60;;;1.50;99.90;;;;;;4910934;29;20135;-70
2023/01/25 00:40:00;;;;;;;28.03;21.47;;;1.40;99.90;;;;;;4898919;29;20475;-70
2023/01/25 00:42:26;;;;;;;26.90;20.30;;;1.40;99.90;;;;;;4896248;29;20104;-69
2023/01/25 00:44:53;;;;;;;29.63;21.87;;;1.40;99.90;;;;;;4892923;29;20032;-71
2023/01/25 00:47:19;;;;;;;25.10;18.90;;;1.50;99.90;;;;;;4901350;29;20040;-71
2023/01/25 00:49:46;;;;;;;24.70;19.17;;;1.40;99.90;;;;;;4914441;29;20083;-71
2023/01/25 00:52:13;;;;;;;24.00;19.23;;;1.40;99.90;;;;;;4878239;29;20047;-69
2023/01/25 00:54:40;;;;;;;20.67;16.83;;;1.50;99.90;;;;;;4906703;29;20047;-70
2023/01/25 00:57:07;;;;;;;27.63;18.77;;;1.40;99.90;;;;;;4899080;29;20058;-69
2023/01/25 00:59:34;;;;;;;22.17;17.73;;;1.40;99.90;;;;;;4893633;29;20043;-70
2023/01/25 01:02:01;;;;;;;28.27;21.73;;;1.40;99.90;;;;;;4907143;29;20059;-71
2023/01/25 01:04:29;;;;;;;28.90;21.63;;;1.40;99.90;;;;;;4904023;29;20035;-69
2023/01/25 01:06:55;;;;;;;26.20;19.47;;;1.40;99.90;;;;;;4883551;29;20044;-70
2023/01/25 01:09:23;;;;;;;21.17;16.37;;;1.40;99.90;;;;;;4878375;29;20523;-70
2023/01/25 01:11:52;;;;;;;21.97;15.53;;;1.40;99.90;;;;;;4886466;29;20423;-70
2023/01/25 01:14:19;;;;;;;28.33;21.37;;;1.30;99.90;;;;;;4892267;29;20499;-70
2023/01/25 01:16:46;;;;;;;21.77;17.03;;;1.40;99.90;;;;;;4887482;29;20608;-69
2023/01/25 01:19:12;;;;;;;18.53;14.80;;;1.30;99.90;;;;;;4920325;29;20498;-69
2023/01/25 01:21:39;;;;;;;20.43;16.20;;;1.40;99.90;;;;;;4917495;29;20492;-69
2023/01/25 01:24:05;;;;;;;24.47;18.67;;;1.40;99.90;;;;;;4899541;29;20039;-69
2023/01/25 01:26:32;;;;;;;25.73;20.40;;;1.30;99.90;;;;;;4891205;29;20439;-69
2023/01/25 01:28:58;;;;;;;20.43;16.77;;;1.30;99.90;;;;;;4912092;29;20052;-69
2023/01/25 01:31:26;;;;;;;27.73;21.03;;;1.30;99.90;;;;;;4898761;29;20047;-70
2023/01/25 01:34:16;;;;;;;23.00;18.80;;;1.30;99.90;;;;;;4898459;29;20050;-69
2023/01/25 01:36:42;;;;;;;25.33;20.50;;;1.30;99.90;;;;;;4895311;29;20060;-70
2023/01/25 01:39:08;;;;;;;24.17;19.10;;;1.30;99.90;;;;;;4901810;29;20034;-70
2023/01/25 01:41:35;;;;;;;19.67;16.23;;;1.40;99.90;;;;;;4911303;29;20055;-69
2023/01/25 01:44:02;;;;;;;23.67;18.20;;;1.30;99.90;;;;;;4916270;29;20032;-69
2023/01/25 01:46:28;;;;;;;24.93;18.57;;;1.30;99.90;;;;;;4919391;29;20036;-69
2023/01/25 01:49:09;;;;;;;25.97;19.80;;;1.30;99.90;;;;;;4912747;29;20044;-70
2023/01/25 01:51:38;;;;;;;24.73;19.67;;;1.30;99.90;;;;;;4899030;29;20058;-70
2023/01/25 01:54:24;;;;;;;26.07;20.20;;;1.30;99.90;;;;;;4900257;29;20047;-71
2023/01/25 01:57:21;;;;;;;31.60;22.67;;;1.30;99.90;;;;;;4885802;29;20042;-70
2023/01/25 01:59:49;;;;;;;26.40;20.73;;;1.30;99.90;;;;;;4902438;29;20048;-69
2023/01/25 02:02:16;;;;;;;23.43;18.70;;;1.30;99.90;;;;;;4895240;29;20044;-70
2023/01/25 02:04:47;;;;;;;26.80;20.13;;;1.40;99.90;;;;;;4879844;29;20050;-70
2023/01/25 02:07:22;;;;;;;26.77;21.27;;;1.30;99.90;;;;;;4902136;29;20048;-70
2023/01/25 02:09:49;;;;;;;26.90;20.43;;;1.30;99.90;;;;;;4889166;29;20050;-70
2023/01/25 02:12:19;;;;;;;27.87;21.03;;;1.40;99.90;;;;;;4895621;29;20044;-70
2023/01/25 02:14:49;;;;;;;27.30;20.43;;;1.40;99.90;;;;;;4915461;29;20047;-69
2023/01/25 02:17:31;;;;;;;26.58;20.48;;;1.40;99.90;;;;;;4903933;29;20036;-70
2023/01/25 02:20:17;;;;;;;27.80;21.40;;;1.40;99.90;;;;;;4885132;29;20036;-70
2023/01/25 02:23:01;;;;;;;29.17;21.30;;;1.40;99.90;;;;;;4916988;29;20039;-70
2023/01/25 02:25:27;;;;;;;26.83;22.10;;;1.40;99.90;;;;;;4894974;29;20055;-69
2023/01/25 02:27:59;;;;;;;28.60;22.53;;;1.40;99.90;;;;;;4886917;29;20036;-71
2023/01/25 02:30:27;;;;;;;27.35;21.50;;;1.40;99.90;;;;;;4883323;29;20052;-70
2023/01/25 02:32:53;;;;;;;27.47;20.87;;;1.50;99.90;;;;;;4894932;29;20047;-69
2023/01/25 02:35:22;;;;;;;28.87;22.60;;;1.40;99.90;;;;;;4883247;29;20060;-70
2023/01/25 02:37:49;;;;;;;26.40;20.27;;;1.40;99.90;;;;;;4896026;29;20032;-69
2023/01/25 02:40:17;;;;;;;22.83;17.77;;;1.40;99.90;;;;;;4905766;29;20063;-70
2023/01/25 02:42:44;;;;;;;27.23;19.77;;;1.30;99.90;;;;;;4898066;29;20036;-70
2023/01/25 02:45:16;;;;;;;35.97;27.43;;;1.30;99.90;;;;;;4897859;29;20420;-69
2023/01/25 02:47:43;;;;;;;39.27;28.10;;;1.30;99.90;;;;;;4886447;29;20487;-69
2023/01/25 02:50:10;;;;;;;29.53;21.47;;;1.20;99.90;;;;;;4908529;29;20044;-70
2023/01/25 02:52:36;;;;;;;26.93;21.60;;;1.20;99.90;;;;;;4880290;29;20083;-71
2023/01/25 02:55:02;;;;;;;37.10;29.23;;;1.20;99.90;;;;;;4893616;29;20415;-70
2023/01/25 02:57:29;;;;;;;35.57;26.50;;;1.10;99.90;;;;;;4882820;29;20055;-69
2023/01/25 02:59:55;;;;;;;32.07;24.63;;;1.20;99.90;;;;;;4910112;29;20032;-69
2023/01/25 03:02:24;;;;;;;33.87;25.57;;;1.10;99.90;;;;;;4896854;29;20047;-70
2023/01/25 03:04:50;;;;;;;28.17;22.37;;;1.10;99.90;;;;;;4895671;29;21105;-70
2023/01/25 03:07:17;;;;;;;27.40;21.53;;;1.10;99.90;;;;;;4899167;29;20035;-71
2023/01/25 03:09:44;;;;;;;32.43;24.30;;;1.10;99.90;;;;;;4902492;29;20050;-70
2023/01/25 03:12:10;;;;;;;30.13;24.63;;;1.10;99.90;;;;;;4898856;29;20036;-70
2023/01/25 03:14:38;;;;;;;31.07;24.03;;;1.10;99.90;;;;;;4881361;29;20028;-70
2023/01/25 03:17:05;;;;;;;29.13;22.43;;;1.10;99.90;;;;;;4906491;29;20044;-70
2023/01/25 03:19:31;;;;;;;30.33;23.57;;;1.10;99.90;;;;;;4898395;29;20040;-69
2023/01/25 03:21:58;;;;;;;21.50;16.10;;;1.10;99.90;;;;;;4896461;29;20412;-71
2023/01/25 03:24:25;;;;;;;36.17;27.53;;;1.10;99.90;;;;;;4878659;29;20381;-70
2023/01/25 03:27:10;;;;;;;33.07;24.80;;;1.00;99.90;;;;;;4915268;29;20036;-69
2023/01/25 03:29:41;;;;;;;31.53;22.30;;;1.00;99.90;;;;;;4882423;29;20027;-70
2023/01/25 03:32:13;;;;;;;25.10;18.73;;;1.00;99.90;;;;;;4897998;29;20397;-70
2023/01/25 03:34:39;;;;;;;26.43;20.73;;;1.00;99.90;;;;;;4911764;29;20483;-71
2023/01/25 03:37:06;;;;;;;29.07;21.83;;;1.00;99.90;;;;;;4894090;29;20297;-71
2023/01/25 03:39:35;;;;;;;33.17;25.40;;;1.00;99.90;;;;;;4910147;29;20040;-70
2023/01/25 03:42:01;;;;;;;30.93;23.37;;;1.00;99.90;;;;;;4894455;29;20032;-71
2023/01/25 03:44:27;;;;;;;38.30;28.47;;;1.00;99.90;;;;;;4895237;29;20039;-70
2023/01/25 03:46:54;;;;;;;30.93;23.30;;;1.10;99.90;;;;;;4898997;29;20055;-71
2023/01/25 03:49:20;;;;;;;30.93;23.90;;;1.10;99.90;;;;;;4916147;29;20071;-69
2023/01/25 03:51:47;;;;;;;30.03;22.50;;;1.10;99.90;;;;;;4894841;29;20384;-69
2023/01/25 03:54:14;;;;;;;30.27;22.27;;;1.10;99.90;;;;;;4890674;29;20035;-70
2023/01/25 03:56:41;;;;;;;29.90;23.03;;;1.10;99.90;;;;;;4914038;29;20412;-70
2023/01/25 03:59:13;;;;;;;32.83;24.58;;;1.20;99.90;;;;;;4901653;29;20027;-72
2023/01/25 04:01:40;;;;;;;31.90;24.47;;;1.20;99.90;;;;;;4900198;29;20047;-70
2023/01/25 04:04:07;;;;;;;28.60;21.33;;;1.20;99.90;;;;;;4879933;29;20551;-70
2023/01/25 04:06:35;;;;;;;29.97;22.87;;;1.20;99.90;;;;;;4899183;29;20043;-70
2023/01/25 04:09:03;;;;;;;33.03;24.17;;;1.20;99.90;;;;;;4881753;29;20051;-70
2023/01/25 04:11:36;;;;;;;27.83;21.67;;;1.10;99.90;;;;;;4905726;29;20236;-70
2023/01/25 04:14:02;;;;;;;26.27;20.37;;;1.10;99.90;;;;;;4884672;29;20051;-70
2023/01/25 04:16:37;;;;;;;25.10;20.40;;;1.10;99.90;;;;;;4897809;29;20050;-69
2023/01/25 04:19:24;;;;;;;29.53;21.83;;;1.10;99.90;;;;;;4909181;29;20043;-70
2023/01/25 04:21:50;;;;;;;30.97;22.77;;;1.00;99.90;;;;;;4879743;29;20428;-70
2023/01/25 04:24:17;;;;;;;24.97;18.87;;;1.00;99.90;;;;;;4895128;29;20043;-69
2023/01/25 04:26:44;;;;;;;34.23;24.80;;;1.00;99.90;;;;;;4915514;29;20039;-69
2023/01/25 04:29:11;;;;;;;32.63;24.57;;;0.90;99.90;;;;;;4885121;29;20047;-69
2023/01/25 04:31:38;;;;;;;32.97;24.90;;;0.80;99.90;;;;;;4896906;29;20039;-69
2023/01/25 04:34:05;;;;;;;27.83;20.40;;;0.80;99.90;;;;;;4878636;29;20032;-70
2023/01/25 04:36:31;;;;;;;30.23;22.00;;;0.80;99.90;;;;;;4914177;29;20072;-71
2023/01/25 04:38:58;;;;;;;30.30;21.93;;;0.70;99.90;;;;;;4883977;29;20043;-69
2023/01/25 04:41:27;;;;;;;31.23;23.33;;;0.80;99.90;;;;;;4881580;29;20046;-70
2023/01/25 04:43:54;;;;;;;35.33;25.47;;;0.80;99.90;;;;;;4878426;29;20043;-70
2023/01/25 04:46:21;;;;;;;30.63;22.53;;;0.80;99.90;;;;;;4913901;29;20051;-70
2023/01/25 04:48:47;;;;;;;32.00;23.03;;;0.90;99.90;;;;;;4881382;29;20055;-71
2023/01/25 04:51:17;;;;;;;31.57;23.37;;;0.90;99.90;;;;;;4910968;29;20040;-72
2023/01/25 04:53:43;;;;;;;35.77;25.90;;;0.90;99.90;;;;;;4891358;29;20032;-70
2023/01/25 04:56:09;;;;;;;34.77;25.43;;;0.90;99.90;;;;;;4895741;29;20048;-69
2023/01/25 04:58:47;;;;;;;32.97;23.30;;;0.90;99.90;;;;;;4883238;29;20051;-69
2023/01/25 05:01:14;;;;;;;36.87;25.73;;;0.90;99.90;;;;;;4912541;29;20042;-72
2023/01/25 05:03:40;;;;;;;35.60;25.17;;;0.90;99.90;;;;;;4876236;29;21129;-70
2023/01/25 05:06:13;;;;;;;33.57;24.80;;;0.90;99.90;;;;;;4880787;29;20052;-71
2023/01/25 05:08:40;;;;;;;36.07;26.90;;;0.90;99.90;;;;;;4899215;29;20032;-70
2023/01/25 05:11:06;;;;;;;32.47;24.53;;;1.00;99.90;;;;;;4876101;29;20051;-69
2023/01/25 05:13:54;;;;;;;33.57;24.73;;;1.00;99.90;;;;;;4880982;29;20036;-71
2023/01/25 05:16:28;;;;;;;39.30;27.67;;;1.00;99.90;;;;;;4908006;29;20040;-70
2023/01/25 05:18:54;;;;;;;31.87;23.87;;;1.00;99.90;;;;;;4907881;29;20044;-69
2023/01/25 05:24:10;;;;;;;34.10;24.63;;;1.00;99.90;;;;;;4905919;29;20052;-69
2023/01/25 05:29:22;;;;;;;34.83;25.37;;;1.00;99.90;;;;;;4908483;29;20046;-72
2023/01/25 05:31:57;;;;;;;33.57;25.57;;;1.00;99.90;;;;;;4894618;29;20028;-69
2023/01/25 05:34:25;;;;;;;32.53;23.30;;;1.00;99.90;;;;;;4905078;29;20503;-69
2023/01/25 05:36:52;;;;;;;25.20;19.20;;;0.90;99.90;;;;;;4898266;29;20471;-70
2023/01/25 05:39:19;;;;;;;26.37;20.27;;;1.00;99.90;;;;;;4898102;29;20040;-70
2023/01/25 05:41:47;;;;;;;35.73;25.87;;;1.00;99.90;;;;;;4910953;29;20040;-69
2023/01/25 05:44:14;;;;;;;31.67;23.17;;;1.00;99.90;;;;;;4876546;29;20032;-70
2023/01/25 05:46:45;;;;;;;33.80;25.13;;;1.00;99.90;;;;;;4891659;29;20048;-71
2023/01/25 05:49:12;;;;;;;37.40;26.87;;;1.00;99.90;;;;;;4868913;29;20036;-69
2023/01/25 05:51:40;;;;;;;42.93;31.50;;;1.00;99.90;;;;;;4890342;29;20083;-69
2023/01/25 05:54:10;;;;;;;34.10;25.10;;;1.00;99.90;;;;;;4881258;29;20044;-70
2023/01/25 05:56:37;;;;;;;31.53;23.00;;;1.00;99.90;;;;;;4909108;29;20051;-70
2023/01/25 05:59:04;;;;;;;40.13;29.07;;;1.00;99.90;;;;;;4913327;29;20505;-70
2023/01/25 06:01:30;;;;;;;37.43;25.63;;;1.00;99.90;;;;;;4895039;29;20047;-71
2023/01/25 06:03:58;;;;;;;40.00;27.70;;;1.00;99.90;;;;;;4893775;29;20046;-71
2023/01/25 06:06:25;;;;;;;37.37;26.43;;;1.00;99.90;;;;;;4898014;29;20411;-71
2023/01/25 06:08:52;;;;;;;38.43;26.90;;;1.00;99.90;;;;;;4870226;29;20495;-71
2023/01/25 06:11:23;;;;;;;40.43;29.23;;;0.90;99.90;;;;;;4891974;29;20035;-71
2023/01/25 06:13:50;;;;;;;35.30;26.37;;;1.00;99.90;;;;;;4898555;29;20074;-70
2023/01/25 06:16:18;;;;;;;43.50;30.30;;;1.00;99.90;;;;;;4904728;29;20043;-71
2023/01/25 06:19:22;;;;;;;38.80;27.27;;;1.00;99.90;;;;;;4873491;29;20045;-71
2023/01/25 06:22:08;;;;;;;37.67;27.00;;;0.90;99.90;;;;;;4869069;29;20048;-70
2023/01/25 06:24:34;;;;;;;34.13;24.17;;;1.00;99.90;;;;;;4882033;29;20040;-70
2023/01/25 06:27:01;;;;;;;39.13;28.40;;;1.00;99.90;;;;;;4917043;29;20047;-70
2023/01/25 06:29:27;;;;;;;40.47;28.37;;;1.00;99.90;;;;;;4894326;29;20036;-70
2023/01/25 06:31:54;;;;;;;45.27;30.60;;;0.90;99.90;;;;;;4894659;29;20044;-70
2023/01/25 06:34:21;;;;;;;42.23;28.50;;;0.90;99.90;;;;;;4912902;29;20028;-70
2023/01/25 06:36:48;;;;;;;46.17;32.13;;;0.90;99.90;;;;;;4914457;29;20052;-71
2023/01/25 06:39:14;;;;;;;49.17;34.37;;;0.90;99.90;;;;;;4916401;29;20492;-70
2023/01/25 06:41:41;;;;;;;44.70;31.13;;;1.00;99.90;;;;;;4899273;29;20046;-69
2023/01/25 06:44:08;;;;;;;42.27;29.77;;;0.90;99.90;;;;;;4909214;29;20372;-70
2023/01/25 06:46:34;;;;;;;44.93;30.13;;;0.90;99.90;;;;;;4885070;29;20502;-70
2023/01/25 06:49:00;;;;;;;37.47;26.73;;;0.90;99.90;;;;;;4903434;29;20048;-70
2023/01/25 06:51:26;;;;;;;42.83;29.80;;;1.00;99.90;;;;;;4878748;29;20048;-70
2023/01/25 06:53:53;;;;;;;41.13;28.97;;;1.00;99.90;;;;;;4882573;29;20044;-69
2023/01/25 06:56:21;;;;;;;35.43;24.77;;;0.90;99.90;;;;;;4899751;29;20036;-71
2023/01/25 06:58:48;;;;;;;43.10;29.00;;;0.90;99.90;;;;;;4899076;29;20044;-71
2023/01/25 07:01:25;;;;;;;39.23;27.77;;;0.90;99.90;;;;;;4916797;29;20269;-70
2023/01/25 07:03:54;;;;;;;40.10;29.47;;;0.90;99.90;;;;;;4911895;29;20059;-70
2023/01/25 07:06:21;;;;;;;48.60;33.93;;;0.90;99.90;;;;;;4911382;29;20043;-69
2023/01/25 07:08:48;;;;;;;41.57;28.40;;;0.90;99.90;;;;;;4916377;29;20051;-70
2023/01/25 07:11:17;;;;;;;39.03;28.40;;;0.80;99.90;;;;;;4881801;29;20404;-71
2023/01/25 07:13:45;;;;;;;37.00;25.13;;;0.80;99.90;;;;;;4892467;29;20044;-70
2023/01/25 07:16:18;;;;;;;41.07;28.50;;;0.80;99.90;;;;;;4900413;29;20290;-70
2023/01/25 07:18:44;;;;;;;40.33;28.33;;;0.90;99.90;;;;;;4884441;29;20047;-69
2023/01/25 07:21:12;;;;;;;41.03;29.00;;;0.90;99.90;;;;;;4888115;29;20040;-72
2023/01/25 07:23:40;;;;;;;40.90;28.40;;;0.90;99.90;;;;;;4906005;29;20036;-71
2023/01/25 07:26:20;;;;;;;42.23;29.07;;;0.90;99.90;;;;;;4914776;29;20044;-70
2023/01/25 07:28:47;;;;;;;43.17;30.20;;;0.90;99.90;;;;;;4897250;29;20121;-70
2023/01/25 07:31:14;;;;;;;45.03;30.53;;;0.90;99.90;;;;;;4896466;29;20031;-70
2023/01/25 07:33:41;;;;;;;42.03;28.73;;;0.90;99.90;;;;;;4908278;29;20048;-70
2023/01/25 07:36:09;;;;;;;49.03;33.97;;;0.90;99.90;;;;;;4898087;29;20051;-70
2023/01/25 07:38:35;;;;;;;36.00;26.10;;;0.90;99.90;;;;;;4906771;29;20036;-70
2023/01/25 07:41:02;;;;;;;47.33;33.23;;;0.90;99.90;;;;;;4901218;29;20036;-70
2023/01/25 07:43:29;;;;;;;41.93;29.70;;;1.00;99.90;;;;;;4876382;29;20044;-69
2023/01/25 07:46:05;;;;;;;44.83;30.53;;;1.00;99.90;;;;;;4901354;29;20047;-70
2023/01/25 07:48:32;;;;;;;42.20;28.23;;;1.00;99.90;;;;;;4884500;29;20051;-71
2023/01/25 07:51:15;;;;;;;42.63;31.00;;;1.00;99.90;;;;;;4900423;29;20031;-70
2023/01/25 07:53:42;;;;;;;41.17;27.92;;;1.00;99.90;;;;;;4905016;29;20046;-70
2023/01/25 07:56:10;;;;;;;40.63;27.00;;;1.00;99.90;;;;;;4898185;29;20491;-71
2023/01/25 07:58:37;;;;;;;37.93;28.33;;;1.00;99.90;;;;;;4897394;29;20049;-70
2023/01/25 08:01:08;;;;;;;46.93;30.93;;;1.00;99.90;;;;;;4917166;29;20043;-69
2023/01/25 08:03:35;;;;;;;47.83;33.13;;;1.00;99.90;;;;;;4911703;29;20046;-70
2023/01/25 08:06:04;;;;;;;40.27;28.10;;;1.00;99.90;;;;;;4896417;29;20040;-70
2023/01/25 08:08:32;;;;;;;39.17;25.33;;;1.00;99.90;;;;;;4921226;29;20036;-70
2023/01/25 08:11:13;;;;;;;45.57;30.73;;;1.00;99.90;;;;;;4906920;29;20038;-70
2023/01/25 08:13:40;;;;;;;40.90;28.07;;;1.00;99.90;;;;;;4884059;29;20048;-70
2023/01/25 08:16:07;;;;;;;47.50;32.93;;;1.00;99.90;;;;;;4900346;29;20534;-71
2023/01/25 08:18:34;;;;;;;48.80;31.37;;;1.00;99.90;;;;;;4918963;29;20061;-70
2023/01/25 08:21:00;;;;;;;42.30;28.50;;;1.00;99.90;;;;;;4910812;29;20475;-70
2023/01/25 08:23:27;;;;;;;41.17;27.90;;;1.00;99.90;;;;;;4892143;29;20043;-72
2023/01/25 08:25:53;;;;;;;48.30;30.90;;;1.00;99.90;;;;;;4899096;29;20481;-70
2023/01/25 08:28:19;;;;;;;46.37;30.23;;;0.90;99.90;;;;;;4913543;29;20038;-70
2023/01/25 08:30:46;;;;;;;37.27;24.47;;;0.90;99.90;;;;;;4896159;29;20036;-69
2023/01/25 08:33:12;;;;;;;49.07;30.93;;;0.90;99.90;;;;;;4892744;29;20408;-70
2023/01/25 08:35:38;;;;;;;55.90;37.73;;;0.90;99.90;;;;;;4916632;29;20056;-70
2023/01/25 08:38:04;;;;;;;47.17;32.47;;;0.90;99.90;;;;;;4896770;29;20063;-70
2023/01/25 08:40:31;;;;;;;45.20;30.17;;;0.90;99.90;;;;;;4916716;29;20043;-69
2023/01/25 08:42:57;;;;;;;39.37;27.73;;;0.90;99.90;;;;;;4909540;29;20032;-69
2023/01/25 08:45:23;;;;;;;44.53;29.97;;;0.90;99.90;;;;;;4895863;29;20043;-69
2023/01/25 08:47:50;;;;;;;48.87;32.37;;;0.90;99.90;;;;;;4916056;29;20061;-71
2023/01/25 08:50:16;;;;;;;43.07;27.47;;;1.00;99.90;;;;;;4902030;29;20039;-70
2023/01/25 08:52:42;;;;;;;41.77;29.13;;;1.00;99.90;;;;;;4904057;29;21383;-70
2023/01/25 08:55:09;;;;;;;48.40;33.40;;;1.00;99.90;;;;;;4894511;29;20407;-70
2023/01/25 08:57:35;;;;;;;48.17;31.33;;;1.00;99.90;;;;;;4897312;29;20055;-70
2023/01/25 09:00:01;;;;;;;40.17;28.47;;;1.00;99.90;;;;;;4918298;29;20038;-70
2023/01/25 09:02:28;;;;;;;49.77;32.90;;;1.00;99.90;;;;;;4893074;29;20035;-70
2023/01/25 09:04:54;;;;;;;32.50;22.40;;;1.00;99.90;;;;;;4891548;29;20040;-69
2023/01/25 09:07:20;;;;;;;41.27;28.27;;;1.00;99.90;;;;;;4895500;29;20058;-70
2023/01/25 09:09:47;;;;;;;41.23;26.97;;;1.00;99.90;;;;;;4881495;29;20058;-70
2023/01/25 09:12:13;;;;;;;43.87;26.90;;;1.10;99.90;;;;;;4892700;29;20048;-69
2023/01/25 09:14:39;;;;;;;45.27;28.63;;;1.10;99.90;;;;;;4896130;29;20040;-70
2023/01/25 09:17:05;;;;;;;53.37;34.97;;;1.10;99.90;;;;;;4914432;29;20539;-70
2023/01/25 09:19:32;;;;;;;49.97;32.87;;;1.00;99.90;;;;;;4897884;29;20039;-70
2023/01/25 09:21:58;;;;;;;47.80;31.63;;;1.00;99.90;;;;;;4908813;29;20036;-69
2023/01/25 09:24:24;;;;;;;53.87;34.40;;;1.00;99.90;;;;;;4909832;29;20400;-69
2023/01/25 09:26:50;;;;;;;54.77;34.07;;;1.00;99.90;;;;;;4900807;29;20040;-70
2023/01/25 09:29:17;;;;;;;54.53;35.27;;;1.00;99.90;;;;;;4872560;29;20044;-69
2023/01/25 09:31:43;;;;;;;51.87;33.90;;;1.00;99.90;;;;;;4897826;29;20040;-70
2023/01/25 09:34:32;;;;;;;48.53;30.97;;;1.00;99.90;;;;;;4877437;29;20051;-70
2023/01/25 09:36:58;;;;;;;36.83;24.93;;;1.00;99.90;;;;;;4912682;29;20039;-70
2023/01/25 09:39:25;;;;;;;38.23;24.80;;;1.10;99.90;;;;;;4914206;29;20039;-70
2023/01/25 09:42:11;;;;;;;47.93;30.80;;;1.10;99.90;;;;;;4896019;29;20035;-70
2023/01/25 09:44:51;;;;;;;49.50;32.03;;;1.10;99.90;;;;;;4897560;29;20062;-71
2023/01/25 09:47:37;;;;;;;56.97;37.30;;;1.10;99.90;;;;;;4917460;29;20404;-69
2023/01/25 09:50:25;;;;;;;46.43;30.57;;;1.00;99.90;;;;;;4923450;29;20044;-70
2023/01/25 09:53:10;;;;;;;53.97;33.40;;;1.00;99.90;;;;;;4913638;29;20044;-70
2023/01/25 09:55:37;;;;;;;53.90;32.47;;;1.00;99.90;;;;;;4894692;29;20028;-71
2023/01/25 09:58:12;;;;;;;51.20;33.00;;;0.90;99.90;;;;;;4898772;29;20447;-70
2023/01/25 10:00:46;;;;;;;50.90;32.90;;;1.00;99.90;;;;;;4899704;29;20044;-70
2023/01/25 10:03:21;;;;;;;52.97;34.17;;;1.00;99.90;;;;;;4894252;29;20821;-71
2023/01/25 10:05:50;;;;;;;48.83;32.63;;;1.00;99.90;;;;;;4893736;29;20040;-70
2023/01/25 10:08:31;;;;;;;51.63;33.63;;;1.00;99.90;;;;;;4898740;29;20067;-70
2023/01/25 10:11:13;;;;;;;55.47;33.67;;;1.10;99.90;;;;;;4894455;29;20037;-70
2023/01/25 10:13:39;;;;;;;47.67;30.60;;;1.10;99.90;;;;;;4909933;29;20712;-71
2023/01/25 10:16:23;;;;;;;55.53;35.73;;;1.10;99.90;;;;;;4896031;29;20043;-72
2023/01/25 10:19:21;;;;;;;59.17;36.93;;;1.10;99.90;;;;;;4906688;29;20032;-70
2023/01/25 10:21:57;;;;;;;52.53;32.83;;;1.20;99.90;;;;;;4910163;29;20518;-70
2023/01/25 10:24:26;;;;;;;54.73;34.70;;;1.20;99.90;;;;;;4909535;29;20028;-69
2023/01/25 10:27:01;;;;;;;54.13;35.80;;;1.20;99.90;;;;;;4890898;29;20044;-69
2023/01/25 10:29:31;;;;;;;52.97;33.67;;;1.20;99.90;;;;;;4889787;29;20047;-70
2023/01/25 10:32:26;;;;;;;56.07;35.67;;;1.20;99.90;;;;;;4887331;29;20507;-70
2023/01/25 10:34:56;;;;;;;56.93;36.03;;;1.20;99.90;;;;;;4892556;29;20060;-69
2023/01/25 10:37:27;;;;;;;52.87;34.53;;;1.30;99.90;;;;;;4915415;29;20043;-70
2023/01/25 10:39:59;;;;;;;49.60;31.50;;;1.30;99.90;;;;;;4914359;29;20597;-70
2023/01/25 10:42:28;;;;;;;;;;;1.40;99.90;;;;;;4895080;29;20040;-70
2023/01/25 10:44:54;;;;;;;49.13;29.93;;;1.30;99.90;;;;;;4894150;29;19911;-69
2023/01/25 10:47:25;;;;;;;49.03;31.67;;;1.40;99.90;;;;;;4906583;29;20047;-70
2023/01/25 10:49:54;;;;;;;52.17;34.37;;;1.40;99.90;;;;;;4897623;29;20583;-71
2023/01/25 10:52:22;;;;;;;52.00;33.57;;;1.40;99.90;;;;;;4871919;29;20024;-70
2023/01/25 10:55:16;;;;;;;46.53;30.77;;;1.40;99.90;;;;;;4878220;29;20056;-69
2023/01/25 10:57:48;;;;;;;56.60;34.17;;;1.40;99.90;;;;;;4883637;29;20044;-70
2023/01/25 11:00:26;;;;;;;53.13;34.55;;;1.40;99.90;;;;;;4898907;29;20044;-69
2023/01/25 11:02:53;;;;;;;56.53;34.90;;;1.50;99.90;;;;;;4909426;29;20515;-70
2023/01/25 11:05:39;;;;;;;53.57;34.33;;;1.50;99.90;;;;;;4893902;29;20035;-69
2023/01/25 11:08:25;;;;;;;44.33;28.80;;;1.50;99.90;;;;;;4919629;29;20036;-69
2023/01/25 11:10:52;;;;;;;48.20;30.27;;;1.50;99.90;;;;;;4919113;29;20407;-70
2023/01/25 11:13:20;;;;;;;47.87;31.40;;;1.50;99.90;;;;;;4893843;29;20039;-71
2023/01/25 11:16:14;;;;;;;55.17;33.63;;;1.50;99.90;;;;;;4907495;29;20503;-70
2023/01/25 11:18:50;;;;;;;53.17;33.97;;;1.50;99.90;;;;;;4905732;29;20052;-70
2023/01/25 11:21:28;;;;;;;52.83;33.80;;;1.40;99.90;;;;;;4917424;29;20050;-71
2023/01/25 11:24:03;;;;;;;45.30;28.17;;;1.30;99.90;;;;;;4904257;29;20054;-69
2023/01/25 11:26:31;;;;;;;57.37;34.93;;;1.30;99.90;;;;;;4892928;29;20028;-69
2023/01/25 11:29:07;;;;;;;53.10;33.23;;;1.40;99.90;;;;;;4899491;29;20044;-70
2023/01/25 11:31:33;;;;;;;55.80;35.97;;;1.40;99.90;;;;;;4881554;29;20043;-70
2023/01/25 11:34:00;;;;;;;48.80;30.40;;;1.40;99.90;;;;;;4896480;29;20054;-69
2023/01/25 11:36:38;;;;;;;48.93;31.07;;;1.50;99.90;;;;;;4915093;29;20063;-70
2023/01/25 11:39:16;;;;;;;53.67;34.73;;;1.50;99.90;;;;;;4912895;29;20047;-69
2023/01/25 11:42:13;;;;;;;64.53;40.07;;;1.50;99.90;;;;;;4895526;29;20048;-69
2023/01/25 11:45:01;;;;;;;52.60;33.17;;;1.50;99.90;;;;;;4880183;29;20032;-70
2023/01/25 11:47:33;;;;;;;47.83;30.80;;;1.40;99.90;;;;;;4897896;29;20058;-70
2023/01/25 11:50:37;;;;;;;54.20;34.83;;;1.40;99.90;;;;;;4890811;29;20040;-72
2023/01/25 11:53:41;;;;;;;57.07;34.50;;;1.40;99.90;;;;;;4870422;29;20060;-70
2023/01/25 11:56:46;;;;;;;60.20;37.23;;;1.50;99.90;;;;;;4910105;29;20036;-70
2023/01/25 11:59:29;;;;;;;64.50;38.50;;;1.50;99.90;;;;;;4899002;29;20458;-69
2023/01/25 12:02:17;;;;;;;63.05;37.88;;;1.50;99.90;;;;;;4894147;29;20036;-69
2023/01/25 12:05:08;;;;;;;59.90;36.67;;;1.60;99.90;;;;;;4906450;29;20291;-70
2023/01/25 12:07:52;;;;;;;62.93;38.30;;;1.60;99.90;;;;;;4901578;29;20048;-69
2023/01/25 12:10:46;;;;;;;57.40;36.87;;;1.60;99.90;;;;;;4898262;29;20550;-70
2023/01/25 12:13:35;;;;;;;57.77;36.37;;;1.60;99.90;;;;;;4905618;29;20047;-69
2023/01/25 12:16:13;;;;;;;48.50;30.87;;;1.60;99.90;;;;;;4878670;29;20066;-70
2023/01/25 12:19:34;;;;;;;62.23;36.53;;;1.60;99.90;;;;;;4897227;29;20531;-69
2023/01/25 12:22:00;;;;;;;60.17;36.87;;;1.60;99.90;;;;;;4878481;29;20512;-69
2023/01/25 12:24:57;;;;;;;61.07;37.87;;;1.60;99.90;;;;;;4913157;29;20027;-69
2023/01/25 12:27:32;;;;;;;62.60;37.50;;;1.60;99.90;;;;;;4910873;29;20496;-70
2023/01/25 12:30:21;;;;;;;52.17;31.90;;;1.60;99.90;;;;;;4899137;29;20044;-70
2023/01/25 12:32:57;;;;;;;65.37;40.07;;;1.70;99.90;;;;;;4900994;29;20038;-70
2023/01/25 12:35:41;;;;;;;70.10;42.97;;;1.70;99.90;;;;;;4878924;29;20055;-69
2023/01/25 12:38:31;;;;;;;56.47;35.47;;;1.60;99.90;;;;;;4899671;29;20042;-71
2023/01/25 12:41:04;;;;;;;57.40;34.77;;;1.60;99.90;;;;;;4898454;29;20036;-70
2023/01/25 12:43:59;;;;;;;63.40;36.30;;;1.60;99.90;;;;;;4904747;29;20034;-71
2023/01/25 12:46:45;;;;;;;60.50;36.97;;;1.60;99.90;;;;;;4897091;29;20063;-70
2023/01/25 12:49:33;;;;;;;67.13;38.97;;;1.60;99.90;;;;;;4908893;29;20055;-69
2023/01/25 12:52:06;;;;;;;64.37;39.70;;;1.50;99.90;;;;;;4882596;29;20738;-69
2023/01/25 12:54:37;;;;;;;65.53;40.50;;;1.50;99.90;;;;;;4891966;29;20039;-70
2023/01/25 12:57:22;;;;;;;53.87;32.83;;;1.40;99.90;;;;;;4896985;29;20407;-71
2023/01/25 13:00:06;;;;;;;64.50;38.53;;;1.30;99.90;;;;;;4907513;29;20440;-70
2023/01/25 13:02:51;;;;;;;60.40;34.00;;;1.30;99.90;;;;;;4911452;29;20044;-72
2023/01/25 13:05:32;;;;;;;62.87;37.23;;;1.30;99.90;;;;;;4908990;29;20033;-69